sensor_id;sensor_type;location;lat;lon;timestamp;pressure;altitude;pressure_sealevel;temperature;humidity
45323;BME280;31382;50.200;8.674;2023-04-22T00:01:29;99690.13;;;13.82;66.77
45323;BME280;31382;50.200;8.674;2023-04-22T00:06:30;99699.44;;;13.80;66.87
45323;BME280;31382;50.200;8.674;2023-04-22T00:11:32;99689.53;;;13.67;67.13
45323;BME280;31382;50.200;8.674;2023-04-22T00:16:33;99689.94;;;13.71;66.71
45323;BME280;31382;50.200;8.674;2023-04-22T00:21:35;99698.22;;;13.76;66.82
45323;BME280;31382;50.200;8.674;2023-04-22T00:26:36;99691.19;;;13.68;66.86
45323;BME280;31382;50.200;8.674;2023-04-22T00:31:38;99678.31;;;13.63;67.02
45323;BME280;31382;50.200;8.674;2023-04-22T00:36:39;99689.50;;;13.74;66.80
45323;BME280;31382;50.200;8.674;2023-04-22T00:41:40;99683.06;;;13.75;66.72
45323;BME280;31382;50.200;8.674;2023-04-22T00:46:43;99689.09;;;13.70;67.14
45323;BME280;31382;50.200;8.674;2023-04-22T00:51:44;99681.84;;;13.71;67.28
45323;BME280;31382;50.200;8.674;2023-04-22T00:56:46;99687.88;;;13.73;67.12
45323;BME280;31382;50.200;8.674;2023-04-22T01:01:47;99683.91;;;13.75;67.17
45323;BME280;31382;50.200;8.674;2023-04-22T01:06:50;99680.13;;;13.76;66.79
45323;BME280;31382;50.200;8.674;2023-04-22T01:11:52;99685.16;;;13.73;67.05
45323;BME280;31382;50.200;8.674;2023-04-22T01:16:54;99682.66;;;13.71;67.04
45323;BME280;31382;50.200;8.674;2023-04-22T01:21:57;99674.97;;;13.68;67.60
45323;BME280;31382;50.200;8.674;2023-04-22T01:26:59;99674.16;;;13.67;67.27
45323;BME280;31382;50.200;8.674;2023-04-22T01:32:02;99663.34;;;13.67;67.25
45323;BME280;31382;50.200;8.674;2023-04-22T01:37:03;99672.09;;;13.63;67.33
45323;BME280;31382;50.200;8.674;2023-04-22T01:42:06;99664.41;;;13.60;67.46
45323;BME280;31382;50.200;8.674;2023-04-22T01:47:07;99665.91;;;13.49;67.66
45323;BME280;31382;50.200;8.674;2023-04-22T01:52:08;99676.53;;;13.31;68.08
45323;BME280;31382;50.200;8.674;2023-04-22T01:57:11;99680.06;;;13.38;67.74
45323;BME280;31382;50.200;8.674;2023-04-22T02:02:14;99688.13;;;13.44;67.38
45323;BME280;31382;50.200;8.674;2023-04-22T02:07:16;99690.22;;;13.49;67.55
45323;BME280;31382;50.200;8.674;2023-04-22T02:12:17;99660.72;;;13.47;67.54
45323;BME280;31382;50.200;8.674;2023-04-22T02:17:18;99654.28;;;13.42;67.46
45323;BME280;31382;50.200;8.674;2023-04-22T02:22:21;99664.88;;;13.37;67.77
45323;BME280;31382;50.200;8.674;2023-04-22T02:27:23;99683.41;;;13.33;67.91
45323;BME280;31382;50.200;8.674;2023-04-22T02:32:25;99676.13;;;13.34;67.74
45323;BME280;31382;50.200;8.674;2023-04-22T02:37:26;99675.88;;;13.42;67.33
45323;BME280;31382;50.200;8.674;2023-04-22T02:42:27;99678.19;;;13.45;67.57
45323;BME280;31382;50.200;8.674;2023-04-22T02:47:29;99675.69;;;13.43;67.46
45323;BME280;31382;50.200;8.674;2023-04-22T02:52:32;99688.13;;;13.44;67.70
45323;BME280;31382;50.200;8.674;2023-04-22T02:57:33;99684.00;;;13.42;67.77
45323;BME280;31382;50.200;8.674;2023-04-22T03:02:35;99684.63;;;13.37;67.88
45323;BME280;31382;50.200;8.674;2023-04-22T03:07:37;99677.34;;;13.38;67.90
45323;BME280;31382;50.200;8.674;2023-04-22T03:12:38;99677.34;;;13.38;67.85
45323;BME280;31382;50.200;8.674;2023-04-22T03:17:39;99676.09;;;13.20;68.40
45323;BME280;31382;50.200;8.674;2023-04-22T03:22:41;99674.47;;;13.19;68.22
45323;BME280;31382;50.200;8.674;2023-04-22T03:27:42;99685.06;;;13.07;68.39
45323;BME280;31382;50.200;8.674;2023-04-22T03:32:43;99690.84;;;13.04;68.61
45323;BME280;31382;50.200;8.674;2023-04-22T03:37:45;99687.53;;;12.82;68.87
45323;BME280;31382;50.200;8.674;2023-04-22T03:42:46;99691.88;;;12.83;68.87
45323;BME280;31382;50.200;8.674;2023-04-22T03:47:48;99690.66;;;12.86;68.48
45323;BME280;31382;50.200;8.674;2023-04-22T03:52:50;99682.16;;;12.96;68.33
45323;BME280;31382;50.200;8.674;2023-04-22T03:57:51;99684.63;;;12.97;68.60
45323;BME280;31382;50.200;8.674;2023-04-22T04:02:52;99686.09;;;13.00;68.55
45323;BME280;31382;50.200;8.674;2023-04-22T04:07:54;99686.28;;;12.98;68.41
45323;BME280;31382;50.200;8.674;2023-04-22T04:12:56;99694.59;;;12.90;68.44
45323;BME280;31382;50.200;8.674;2023-04-22T04:17:58;99693.97;;;12.75;69.20
45323;BME280;31382;50.200;8.674;2023-04-22T04:23:01;99690.84;;;12.71;68.94
45323;BME280;31382;50.200;8.674;2023-04-22T04:28:06;99701.44;;;12.66;69.02
45323;BME280;31382;50.200;8.674;2023-04-22T04:33:11;99692.53;;;12.72;69.06
45323;BME280;31382;50.200;8.674;2023-04-22T04:38:13;99682.34;;;12.74;69.01
45323;BME280;31382;50.200;8.674;2023-04-22T04:43:14;99680.25;;;12.69;68.78
45323;BME280;31382;50.200;8.674;2023-04-22T04:48:17;99669.47;;;12.69;69.12
45323;BME280;31382;50.200;8.674;2023-04-22T04:53:20;99679.00;;;12.65;68.73
45323;BME280;31382;50.200;8.674;2023-04-22T04:58:22;99676.72;;;12.56;69.40
45323;BME280;31382;50.200;8.674;2023-04-22T05:03:23;99670.94;;;12.59;69.42
45323;BME280;31382;50.200;8.674;2023-04-22T05:08:25;99665.53;;;12.59;69.74
45323;BME280;31382;50.200;8.674;2023-04-22T05:13:26;99666.38;;;12.73;69.13
45323;BME280;31382;50.200;8.674;2023-04-22T05:18:28;99665.53;;;12.65;69.18
45323;BME280;31382;50.200;8.674;2023-04-22T05:23:29;99671.78;;;12.66;69.76
45323;BME280;31382;50.200;8.674;2023-04-22T05:28:31;99664.72;;;12.85;69.05
45323;BME280;31382;50.200;8.674;2023-04-22T05:33:32;99668.06;;;12.94;68.95
45323;BME280;31382;50.200;8.674;2023-04-22T05:38:33;99665.75;;;13.04;68.47
45323;BME280;31382;50.200;8.674;2023-04-22T05:43:35;99680.03;;;13.11;68.08
45323;BME280;31382;50.200;8.674;2023-04-22T05:48:36;99685.06;;;13.07;68.33
45323;BME280;31382;50.200;8.674;2023-04-22T05:53:38;99694.38;;;13.05;68.86
45323;BME280;31382;50.200;8.674;2023-04-22T05:58:39;99696.44;;;13.03;68.62
45323;BME280;31382;50.200;8.674;2023-04-22T06:03:40;99686.28;;;12.98;69.01
45323;BME280;31382;50.200;8.674;2023-04-22T06:08:42;99695.00;;;13.00;68.92
45323;BME280;31382;50.200;8.674;2023-04-22T06:13:44;99683.19;;;13.01;69.15
45323;BME280;31382;50.200;8.674;2023-04-22T06:18:45;99682.75;;;13.18;68.68
45323;BME280;31382;50.200;8.674;2023-04-22T06:23:46;99686.28;;;13.38;68.55
45323;BME280;31382;50.200;8.674;2023-04-22T06:28:48;99691.63;;;13.58;68.62
45323;BME280;31382;50.200;8.674;2023-04-22T06:33:49;99693.22;;;13.79;68.15
45323;BME280;31382;50.200;8.674;2023-04-22T06:38:51;99686.72;;;14.00;67.85
45323;BME280;31382;50.200;8.674;2023-04-22T06:43:52;99685.13;;;14.24;67.47
45323;BME280;31382;50.200;8.674;2023-04-22T06:48:53;99683.56;;;14.42;66.82
45323;BME280;31382;50.200;8.674;2023-04-22T06:53:55;99692.59;;;14.67;66.85
45323;BME280;31382;50.200;8.674;2023-04-22T06:58:58;99686.06;;;15.00;66.03
45323;BME280;31382;50.200;8.674;2023-04-22T07:03:59;99664.09;;;15.34;65.51
45323;BME280;31382;50.200;8.674;2023-04-22T07:09:01;99661.13;;;15.60;64.96
45323;BME280;31382;50.200;8.674;2023-04-22T07:14:02;99675.28;;;15.81;64.36
45323;BME280;31382;50.200;8.674;2023-04-22T07:19:04;99679.19;;;16.03;63.69
45323;BME280;31382;50.200;8.674;2023-04-22T07:24:06;99679.75;;;16.24;62.91
45323;BME280;31382;50.200;8.674;2023-04-22T07:29:12;99660.69;;;16.42;62.54
45323;BME280;31382;50.200;8.674;2023-04-22T07:34:13;99668.41;;;16.57;61.97
45323;BME280;31382;50.200;8.674;2023-04-22T07:39:15;99668.53;;;16.62;61.52
45323;BME280;31382;50.200;8.674;2023-04-22T07:44:16;99666.69;;;16.75;61.46
45323;BME280;31382;50.200;8.674;2023-04-22T07:49:21;99666.03;;;16.91;60.82
45323;BME280;31382;50.200;8.674;2023-04-22T07:54:22;99663.53;;;17.01;60.70
45323;BME280;31382;50.200;8.674;2023-04-22T07:59:24;99657.16;;;17.19;60.62
45323;BME280;31382;50.200;8.674;2023-04-22T08:04:25;99648.66;;;17.39;60.02
45323;BME280;31382;50.200;8.674;2023-04-22T08:09:27;99659.47;;;17.63;59.68
45323;BME280;31382;50.200;8.674;2023-04-22T08:14:28;99654.25;;;17.85;59.11
45323;BME280;31382;50.200;8.674;2023-04-22T08:19:30;99650.28;;;18.04;59.13
45323;BME280;31382;50.200;8.674;2023-04-22T08:24:31;99645.25;;;18.25;58.41
45323;BME280;31382;50.200;8.674;2023-04-22T08:29:33;99647.69;;;18.55;57.82
45323;BME280;31382;50.200;8.674;2023-04-22T08:34:34;99642.56;;;18.76;57.36
45323;BME280;31382;50.200;8.674;2023-04-22T08:39:37;99642.38;;;18.94;56.75
45323;BME280;31382;50.200;8.674;2023-04-22T08:44:39;99642.84;;;19.08;56.22
45323;BME280;31382;50.200;8.674;2023-04-22T08:49:42;99633.66;;;19.31;55.48
45323;BME280;31382;50.200;8.674;2023-04-22T08:54:44;99629.63;;;19.39;55.19
45323;BME280;31382;50.200;8.674;2023-04-22T08:59:47;99640.84;;;19.59;54.21
45323;BME280;31382;50.200;8.674;2023-04-22T09:04:51;99627.47;;;19.80;53.33
45323;BME280;31382;50.200;8.674;2023-04-22T09:09:55;99624.47;;;20.04;52.54
45323;BME280;31382;50.200;8.674;2023-04-22T09:14:57;99619.47;;;20.23;52.10
45323;BME280;31382;50.200;8.674;2023-04-22T09:20:00;99616.94;;;20.43;51.40
45323;BME280;31382;50.200;8.674;2023-04-22T09:25:05;99619.72;;;20.75;50.29
45323;BME280;31382;50.200;8.674;2023-04-22T09:30:08;99628.38;;;21.05;49.03
45323;BME280;31382;50.200;8.674;2023-04-22T09:35:10;99632.13;;;21.31;48.59
45323;BME280;31382;50.200;8.674;2023-04-22T09:40:14;99623.34;;;21.29;48.21
45323;BME280;31382;50.200;8.674;2023-04-22T09:45:33;99628.84;;;21.34;47.20
45323;BME280;31382;50.200;8.674;2023-04-22T09:50:40;99638.91;;;21.28;46.53
45323;BME280;31382;50.200;8.674;2023-04-22T09:55:48;99625.59;;;21.37;46.28
45323;BME280;31382;50.200;8.674;2023-04-22T10:00:53;99614.28;;;21.71;45.73
45323;BME280;31382;50.200;8.674;2023-04-22T10:05:55;99612.91;;;21.73;44.85
45323;BME280;31382;50.200;8.674;2023-04-22T10:10:57;99608.63;;;21.98;44.40
45323;BME280;31382;50.200;8.674;2023-04-22T10:15:59;99594.41;;;22.11;44.50
45323;BME280;31382;50.200;8.674;2023-04-22T10:21:01;99606.78;;;22.45;43.82
45323;BME280;31382;50.200;8.674;2023-04-22T10:26:04;99605.41;;;22.88;43.46
45323;BME280;31382;50.200;8.674;2023-04-22T10:31:05;99589.19;;;23.28;42.78
45323;BME280;31382;50.200;8.674;2023-04-22T10:41:15;99581.19;;;24.02;42.02
45323;BME280;31382;50.200;8.674;2023-04-22T10:51:46;99568.50;;;24.80;40.18
45323;BME280;31382;50.200;8.674;2023-04-22T10:57:10;99552.22;;;25.12;39.29
45323;BME280;31382;50.200;8.674;2023-04-22T11:02:14;99552.91;;;25.28;39.19
45323;BME280;31382;50.200;8.674;2023-04-22T11:17:40;99546.41;;;25.62;37.80
45323;BME280;31382;50.200;8.674;2023-04-22T11:22:44;99534.34;;;25.58;38.69
45323;BME280;31382;50.200;8.674;2023-04-22T11:27:46;99536.53;;;25.61;38.05
45323;BME280;31382;50.200;8.674;2023-04-22T11:32:50;99524.31;;;25.48;37.76
45323;BME280;31382;50.200;8.674;2023-04-22T11:37:54;99516.72;;;25.78;35.77
45323;BME280;31382;50.200;8.674;2023-04-22T11:42:58;99510.41;;;25.78;35.23
45323;BME280;31382;50.200;8.674;2023-04-22T11:48:00;99502.06;;;25.83;34.34
45323;BME280;31382;50.200;8.674;2023-04-22T11:53:22;99506.22;;;25.80;34.10
45323;BME280;31382;50.200;8.674;2023-04-22T11:58:26;99502.09;;;26.02;32.86
45323;BME280;31382;50.200;8.674;2023-04-22T12:03:29;99491.28;;;26.05;32.82
45323;BME280;31382;50.200;8.674;2023-04-22T12:08:36;99487.78;;;26.19;31.83
45323;BME280;31382;50.200;8.674;2023-04-22T12:13:41;99482.34;;;26.14;31.52
45323;BME280;31382;50.200;8.674;2023-04-22T12:23:52;99484.53;;;26.30;30.62
45323;BME280;31382;50.200;8.674;2023-04-22T12:28:56;99482.13;;;26.43;29.75
45323;BME280;31382;50.200;8.674;2023-04-22T12:33:58;99477.81;;;26.37;30.68
45323;BME280;31382;50.200;8.674;2023-04-22T12:39:01;99484.53;;;26.63;29.63
45323;BME280;31382;50.200;8.674;2023-04-22T12:44:03;99476.06;;;26.87;29.43
45323;BME280;31382;50.200;8.674;2023-04-22T12:49:05;99471.47;;;27.10;28.74
45323;BME280;31382;50.200;8.674;2023-04-22T12:54:06;99471.22;;;27.21;28.06
45323;BME280;31382;50.200;8.674;2023-04-22T12:59:08;99477.91;;;26.92;28.51
45323;BME280;31382;50.200;8.674;2023-04-22T13:04:09;99473.28;;;26.74;28.35
45323;BME280;31382;50.200;8.674;2023-04-22T13:09:11;99478.28;;;26.71;28.54
45323;BME280;31382;50.200;8.674;2023-04-22T13:14:13;99472.47;;;26.59;28.40
45323;BME280;31382;50.200;8.674;2023-04-22T13:19:14;99480.16;;;26.43;29.42
45323;BME280;31382;50.200;8.674;2023-04-22T13:24:16;99467.19;;;25.97;29.06
45323;BME280;31382;50.200;8.674;2023-04-22T13:29:17;99470.22;;;25.77;29.71
45323;BME280;31382;50.200;8.674;2023-04-22T13:34:19;99477.00;;;25.46;29.98
45323;BME280;31382;50.200;8.674;2023-04-22T13:39:20;99475.06;;;25.28;30.29
45323;BME280;31382;50.200;8.674;2023-04-22T13:44:22;99470.78;;;24.92;30.91
45323;BME280;31382;50.200;8.674;2023-04-22T13:49:24;99478.84;;;24.60;31.25
45323;BME280;31382;50.200;8.674;2023-04-22T13:54:27;99475.75;;;24.37;31.68
45323;BME280;31382;50.200;8.674;2023-04-22T13:59:30;99475.66;;;24.13;31.98
45323;BME280;31382;50.200;8.674;2023-04-22T14:04:31;99470.06;;;23.94;32.09
45323;BME280;31382;50.200;8.674;2023-04-22T14:09:33;99461.91;;;23.73;32.58
45323;BME280;31382;50.200;8.674;2023-04-22T14:14:34;99468.88;;;23.66;32.79
45323;BME280;31382;50.200;8.674;2023-04-22T14:19:36;99470.09;;;23.44;33.37
45323;BME280;31382;50.200;8.674;2023-04-22T14:29:45;99481.16;;;23.24;33.63
45323;BME280;31382;50.200;8.674;2023-04-22T14:34:47;99489.72;;;23.02;33.99
45323;BME280;31382;50.200;8.674;2023-04-22T14:39:48;99496.94;;;22.72;34.32
45323;BME280;31382;50.200;8.674;2023-04-22T14:44:50;99498.34;;;22.44;34.16
45323;BME280;31382;50.200;8.674;2023-04-22T14:49:51;99509.59;;;22.32;34.53
45323;BME280;31382;50.200;8.674;2023-04-22T14:54:53;99516.09;;;21.95;35.25
45323;BME280;31382;50.200;8.674;2023-04-22T14:59:54;99519.41;;;22.02;35.37
45323;BME280;31382;50.200;8.674;2023-04-22T15:04:55;99504.63;;;22.24;35.61
45323;BME280;31382;50.200;8.674;2023-04-22T15:09:57;99506.00;;;22.36;35.38
45323;BME280;31382;50.200;8.674;2023-04-22T15:14:58;99496.69;;;22.48;35.61
45323;BME280;31382;50.200;8.674;2023-04-22T15:20:00;99494.22;;;22.56;35.68
45323;BME280;31382;50.200;8.674;2023-04-22T15:25:06;99488.41;;;22.84;35.01
45323;BME280;31382;50.200;8.674;2023-04-22T15:30:09;99488.66;;;22.82;35.04
45323;BME280;31382;50.200;8.674;2023-04-22T15:35:13;99488.09;;;22.95;34.81
45323;BME280;31382;50.200;8.674;2023-04-22T15:40:23;99494.38;;;22.96;35.38
45323;BME280;31382;50.200;8.674;2023-04-22T15:45:25;99490.28;;;22.93;35.51
45323;BME280;31382;50.200;8.674;2023-04-22T15:50:26;99494.41;;;22.86;35.87
45323;BME280;31382;50.200;8.674;2023-04-22T15:55:28;99494.41;;;22.86;36.00
45323;BME280;31382;50.200;8.674;2023-04-22T16:00:29;99489.69;;;23.17;36.26
45323;BME280;31382;50.200;8.674;2023-04-22T16:05:30;99495.97;;;23.23;36.13
45323;BME280;31382;50.200;8.674;2023-04-22T16:10:32;99494.41;;;22.91;36.97
45323;BME280;31382;50.200;8.674;2023-04-22T16:15:33;99492.84;;;22.49;37.04
45323;BME280;31382;50.200;8.674;2023-04-22T16:20:35;99489.03;;;22.45;37.20
45323;BME280;31382;50.200;8.674;2023-04-22T16:25:36;99495.06;;;22.26;37.70
45323;BME280;31382;50.200;8.674;2023-04-22T16:30:38;99482.44;;;21.94;38.48
45323;BME280;31382;50.200;8.674;2023-04-22T16:35:39;99477.50;;;21.71;38.36
45323;BME280;31382;50.200;8.674;2023-04-22T16:40:41;99489.53;;;21.65;38.73
45323;BME280;31382;50.200;8.674;2023-04-22T16:45:43;99479.34;;;21.45;39.06
45323;BME280;31382;50.200;8.674;2023-04-22T16:50:44;99467.75;;;21.22;39.74
45323;BME280;31382;50.200;8.674;2023-04-22T16:55:45;99475.63;;;21.08;40.09
45323;BME280;31382;50.200;8.674;2023-04-22T17:00:47;99468.84;;;21.16;39.50
45323;BME280;31382;50.200;8.674;2023-04-22T17:05:48;99472.09;;;21.13;39.86
45323;BME280;31382;50.200;8.674;2023-04-22T17:10:50;99469.34;;;21.08;39.91
45323;BME280;31382;50.200;8.674;2023-04-22T17:15:52;99469.09;;;21.09;39.82
45323;BME280;31382;50.200;8.674;2023-04-22T17:20:53;99474.53;;;21.04;40.32
45323;BME280;31382;50.200;8.674;2023-04-22T17:25:56;99480.56;;;21.11;40.54
45323;BME280;31382;50.200;8.674;2023-04-22T17:30:57;99489.50;;;20.91;40.60
45323;BME280;31382;50.200;8.674;2023-04-22T17:35:58;99482.91;;;20.87;40.79
45323;BME280;31382;50.200;8.674;2023-04-22T17:41:00;99480.41;;;20.80;41.55
45323;BME280;31382;50.200;8.674;2023-04-22T17:46:01;99478.50;;;20.81;41.08
45323;BME280;31382;50.200;8.674;2023-04-22T17:51:03;99486.34;;;20.67;41.56
45323;BME280;31382;50.200;8.674;2023-04-22T17:56:08;99489.31;;;20.60;42.07
45323;BME280;31382;50.200;8.674;2023-04-22T18:01:10;99497.97;;;20.52;42.04
45323;BME280;31382;50.200;8.674;2023-04-22T18:06:11;99504.69;;;20.39;42.61
45323;BME280;31382;50.200;8.674;2023-04-22T18:11:12;99507.66;;;20.33;42.58
45323;BME280;31382;50.200;8.674;2023-04-22T18:16:14;99507.03;;;20.26;42.87
45323;BME280;31382;50.200;8.674;2023-04-22T18:21:15;99507.53;;;20.17;43.10
45323;BME280;31382;50.200;8.674;2023-04-22T18:26:17;99508.00;;;20.09;43.53
45323;BME280;31382;50.200;8.674;2023-04-22T18:31:19;99520.22;;;20.01;43.57
45323;BME280;31382;50.200;8.674;2023-04-22T18:36:21;99520.13;;;19.91;44.01
45323;BME280;31382;50.200;8.674;2023-04-22T18:41:23;99523.69;;;19.92;43.92
45323;BME280;31382;50.200;8.674;2023-04-22T18:46:25;99527.09;;;19.77;44.32
45323;BME280;31382;50.200;8.674;2023-04-22T18:51:27;99534.28;;;19.66;44.63
45323;BME280;31382;50.200;8.674;2023-04-22T18:56:30;99544.59;;;19.59;44.83
45323;BME280;31382;50.200;8.674;2023-04-22T19:01:33;99550.59;;;19.39;45.78
45323;BME280;31382;50.200;8.674;2023-04-22T19:06:35;99558.44;;;19.13;47.00
45323;BME280;31382;50.200;8.674;2023-04-22T19:11:37;99569.25;;;18.86;48.36
45323;BME280;31382;50.200;8.674;2023-04-22T19:16:39;99574.44;;;18.71;49.23
45323;BME280;31382;50.200;8.674;2023-04-22T19:21:40;99574.69;;;18.69;49.51
45323;BME280;31382;50.200;8.674;2023-04-22T19:26:41;99583.31;;;18.32;50.88
45323;BME280;31382;50.200;8.674;2023-04-22T19:31:43;99575.44;;;18.31;51.25
45323;BME280;31382;50.200;8.674;2023-04-22T19:36:44;99583.72;;;18.07;52.12
45323;BME280;31382;50.200;8.674;2023-04-22T19:41:46;99581.41;;;18.16;52.03
45323;BME280;31382;50.200;8.674;2023-04-22T19:46:47;99576.44;;;17.96;52.90
45323;BME280;31382;50.200;8.674;2023-04-22T19:51:49;99572.31;;;17.93;53.16
45323;BME280;31382;50.200;8.674;2023-04-22T19:56:51;99572.22;;;17.88;53.44
45323;BME280;31382;50.200;8.674;2023-04-22T20:01:53;99579.78;;;17.86;53.64
45323;BME280;31382;50.200;8.674;2023-04-22T20:06:55;99578.13;;;17.85;54.11
45323;BME280;31382;50.200;8.674;2023-04-22T20:11:58;99586.88;;;17.87;54.08
45323;BME280;31382;50.200;8.674;2023-04-22T20:16:59;99584.03;;;17.82;54.48
45323;BME280;31382;50.200;8.674;2023-04-22T20:22:01;99578.63;;;17.70;55.07
45323;BME280;31382;50.200;8.674;2023-04-22T20:27:05;99579.84;;;17.62;55.32
45323;BME280;31382;50.200;8.674;2023-04-22T20:32:06;99579.41;;;17.54;55.76
45323;BME280;31382;50.200;8.674;2023-04-22T20:37:11;99579.72;;;17.57;55.79
45323;BME280;31382;50.200;8.674;2023-04-22T20:42:13;99590.00;;;17.55;55.82
45323;BME280;31382;50.200;8.674;2023-04-22T20:47:14;99590.84;;;17.56;55.97
45323;BME280;31382;50.200;8.674;2023-04-22T20:52:16;99590.50;;;17.52;56.22
45323;BME280;31382;50.200;8.674;2023-04-22T20:57:18;99587.59;;;17.42;56.69
45323;BME280;31382;50.200;8.674;2023-04-22T21:02:20;99597.31;;;17.26;57.19
45323;BME280;31382;50.200;8.674;2023-04-22T21:07:22;99592.72;;;17.03;58.44
45323;BME280;31382;50.200;8.674;2023-04-22T21:12:25;99593.19;;;16.88;59.07
45323;BME280;31382;50.200;8.674;2023-04-22T21:17:30;99593.44;;;16.87;59.08
45323;BME280;31382;50.200;8.674;2023-04-22T21:22:32;99590.59;;;16.81;59.44
45323;BME280;31382;50.200;8.674;2023-04-22T21:27:34;99595.53;;;16.73;59.83
45323;BME280;31382;50.200;8.674;2023-04-22T21:32:36;99598.69;;;16.70;60.60
45323;BME280;31382;50.200;8.674;2023-04-22T21:37:40;99597.06;;;16.69;60.63
45323;BME280;31382;50.200;8.674;2023-04-22T21:42:42;99602.81;;;16.72;61.01
45323;BME280;31382;50.200;8.674;2023-04-22T21:47:43;99611.53;;;16.51;61.62
45323;BME280;31382;50.200;8.674;2023-04-22T21:52:44;99616.59;;;16.47;61.94
45323;BME280;31382;50.200;8.674;2023-04-22T21:57:46;99604.09;;;16.46;62.29
45323;BME280;31382;50.200;8.674;2023-04-22T22:02:47;99601.50;;;16.39;62.60
45323;BME280;31382;50.200;8.674;2023-04-22T22:07:49;99607.16;;;16.38;62.88
45323;BME280;31382;50.200;8.674;2023-04-22T22:12:50;99606.09;;;16.51;62.92
45323;BME280;31382;50.200;8.674;2023-04-22T22:17:52;99604.09;;;16.46;63.19
45323;BME280;31382;50.200;8.674;2023-04-22T22:22:53;99600.53;;;16.34;63.65
45323;BME280;31382;50.200;8.674;2023-04-22T22:27:55;99600.91;;;16.37;63.83
45323;BME280;31382;50.200;8.674;2023-04-22T22:32:56;99609.38;;;16.29;64.27
45323;BME280;31382;50.200;8.674;2023-04-22T22:37:58;99602.47;;;16.15;64.87
45323;BME280;31382;50.200;8.674;2023-04-22T22:42:59;99604.59;;;16.13;64.87
45323;BME280;31382;50.200;8.674;2023-04-22T22:48:01;99607.78;;;16.10;65.00
45323;BME280;31382;50.200;8.674;2023-04-22T22:53:02;99606.47;;;16.12;65.40
45323;BME280;31382;50.200;8.674;2023-04-22T22:58:03;99612.34;;;16.09;65.37
45323;BME280;31382;50.200;8.674;2023-04-22T23:03:05;99602.38;;;15.91;65.97
45323;BME280;31382;50.200;8.674;2023-04-22T23:08:07;99613.59;;;15.95;66.01
45323;BME280;31382;50.200;8.674;2023-04-22T23:13:08;99601.19;;;15.87;66.09
45323;BME280;31382;50.200;8.674;2023-04-22T23:18:10;99600.47;;;15.80;66.52
45323;BME280;31382;50.200;8.674;2023-04-22T23:23:16;99595.28;;;15.78;66.76
45323;BME280;31382;50.200;8.674;2023-04-22T23:28:18;99590.22;;;15.63;67.09
45323;BME280;31382;50.200;8.674;2023-04-22T23:33:24;99592.31;;;15.61;67.55
45323;BME280;31382;50.200;8.674;2023-04-22T23:38:26;99587.81;;;15.55;67.57
45323;BME280;31382;50.200;8.674;2023-04-22T23:43:27;99595.50;;;15.40;68.08
45323;BME280;31382;50.200;8.674;2023-04-22T23:48:29;99582.56;;;15.42;68.20
45323;BME280;31382;50.200;8.674;2023-04-22T23:53:30;99580.53;;;15.37;68.40
45323;BME280;31382;50.200;8.674;2023-04-22T23:58:32;99578.88;;;15.36;68.48
